TimeCDT,TemperatureF,Dew PointF,Humidity,Sea Level PressureIn,VisibilityMPH,Wind Direction,Wind SpeedMPH,Gust SpeedMPH,PrecipitationIn,Events,Conditions,WindDirDegrees,DateUTC
12:54 AM,77.0,72.0,84,30.10,10.0,Calm,Calm,-,N/A,,Clear,0,2013-09-05 05:54:00
1:54 AM,75.9,72.0,87,30.11,9.0,Calm,Calm,-,N/A,,Clear,0,2013-09-05 06:54:00
2:54 AM,75.0,72.0,90,30.10,5.0,Calm,Calm,-,N/A,,Clear,0,2013-09-05 07:54:00
3:54 AM,73.9,71.1,91,30.09,3.0,Calm,Calm,-,N/A,,Clear,0,2013-09-05 08:54:00
4:54 AM,73.0,70.0,90,30.10,4.0,Calm,Calm,-,N/A,,Clear,0,2013-09-05 09:54:00
5:35 AM,73.4,69.8,88,30.03,1.8,Calm,Calm,-,N/A,,Clear,0,2013-09-05 10:35:00
5:46 AM,73.4,69.8,88,30.04,3.0,Calm,Calm,-,N/A,,Clear,0,2013-09-05 10:46:00
5:54 AM,73.0,70.0,90,30.12,3.0,Calm,Calm,-,N/A,,Clear,0,2013-09-05 10:54:00
6:54 AM,72.0,69.1,91,30.14,1.8,Calm,Calm,-,N/A,,Clear,0,2013-09-05 11:54:00
7:12 AM,73.4,69.8,88,30.06,2.5,Calm,Calm,-,N/A,,Clear,0,2013-09-05 12:12:00
7:32 AM,73.4,69.8,88,30.07,3.0,Calm,Calm,-,N/A,,Clear,0,2013-09-05 12:32:00
7:54 AM,75.0,72.0,90,30.15,4.0,Calm,Calm,-,N/A,,Clear,0,2013-09-05 12:54:00
8:54 AM,82.9,73.9,74,30.15,10.0,Calm,Calm,-,N/A,,Clear,0,2013-09-05 13:54:00
9:54 AM,88.0,73.9,63,30.15,10.0,Calm,Calm,-,N/A,,Clear,0,2013-09-05 14:54:00
10:54 AM,91.0,73.0,55,30.16,10.0,Variable,4.6,-,N/A,,Clear,0,2013-09-05 15:54:00
11:54 AM,93.9,70.0,46,30.14,10.0,North,4.6,-,N/A,,Clear,10,2013-09-05 16:54:00
12:54 PM,96.1,66.0,37,30.12,10.0,Calm,Calm,-,N/A,,Partly Cloudy,0,2013-09-05 17:54:00
1:54 PM,99.0,64.9,33,30.09,10.0,Variable,5.8,-,N/A,,Clear,0,2013-09-05 18:54:00
2:54 PM,100.0,64.0,31,30.08,10.0,Variable,3.5,-,N/A,,Clear,0,2013-09-05 19:54:00
6:54 PM,93.0,66.0,41,30.07,10.0,Variable,4.6,-,N/A,,Unknown,0,2013-09-05 23:54:00
7:54 PM,87.1,69.1,55,30.08,10.0,Calm,Calm,-,N/A,,Clear,0,2013-09-06 00:54:00
8:54 PM,84.0,69.1,61,30.11,10.0,Calm,Calm,-,N/A,,Clear,0,2013-09-06 01:54:00
9:54 PM,80.1,70.0,71,30.13,10.0,Calm,Calm,-,N/A,,Clear,0,2013-09-06 02:54:00
10:54 PM,77.0,70.0,79,30.14,10.0,Calm,Calm,-,N/A,,Clear,0,2013-09-06 03:54:00
11:54 PM,75.9,70.0,82,30.12,10.0,Calm,Calm,-,N/A,,Clear,0,2013-09-06 04:54:00